sensor_id;sensor_type;location;lat;lon;timestamp;P1;durP1;ratioP1;P2;durP2;ratioP2
65581;SDS011;52231;40.090;18.348;2023-11-21T00:01:54;38.92;;;18.95;;
65581;SDS011;52231;40.090;18.348;2023-11-21T00:06:50;31.75;;;17.58;;
65581;SDS011;52231;40.090;18.348;2023-11-21T00:11:47;34.58;;;15.57;;
65581;SDS011;52231;40.090;18.348;2023-11-21T00:14:15;33.97;;;18.48;;
65581;SDS011;52231;40.090;18.348;2023-11-21T00:16:44;32.88;;;18.60;;
65581;SDS011;52231;40.090;18.348;2023-11-21T00:19:12;31.60;;;18.13;;
65581;SDS011;52231;40.090;18.348;2023-11-21T00:21:40;37.08;;;16.38;;
65581;SDS011;52231;40.090;18.348;2023-11-21T00:24:11;33.45;;;17.10;;
65581;SDS011;52231;40.090;18.348;2023-11-21T00:27:00;33.40;;;17.30;;
65581;SDS011;52231;40.090;18.348;2023-11-21T00:29:28;37.38;;;16.90;;
65581;SDS011;52231;40.090;18.348;2023-11-21T00:31:56;31.83;;;15.52;;
65581;SDS011;52231;40.090;18.348;2023-11-21T00:34:24;35.40;;;16.90;;
65581;SDS011;52231;40.090;18.348;2023-11-21T00:36:52;35.38;;;16.92;;
65581;SDS011;52231;40.090;18.348;2023-11-21T00:39:20;41.80;;;18.70;;
65581;SDS011;52231;40.090;18.348;2023-11-21T00:41:48;34.85;;;17.50;;
65581;SDS011;52231;40.090;18.348;2023-11-21T00:44:18;38.05;;;17.13;;
65581;SDS011;52231;40.090;18.348;2023-11-21T00:46:46;36.03;;;16.02;;
65581;SDS011;52231;40.090;18.348;2023-11-21T00:49:14;34.90;;;17.70;;
65581;SDS011;52231;40.090;18.348;2023-11-21T00:51:42;36.10;;;16.42;;
65581;SDS011;52231;40.090;18.348;2023-11-21T00:54:10;36.42;;;15.45;;
65581;SDS011;52231;40.090;18.348;2023-11-21T00:56:39;39.03;;;15.85;;
65581;SDS011;52231;40.090;18.348;2023-11-21T00:59:08;31.75;;;16.40;;
65581;SDS011;52231;40.090;18.348;2023-11-21T01:01:36;34.88;;;16.75;;
65581;SDS011;52231;40.090;18.348;2023-11-21T01:04:05;32.00;;;14.68;;
65581;SDS011;52231;40.090;18.348;2023-11-21T01:06:37;32.78;;;15.95;;
65581;SDS011;52231;40.090;18.348;2023-11-21T01:09:05;39.75;;;15.40;;
65581;SDS011;52231;40.090;18.348;2023-11-21T01:11:35;30.67;;;14.68;;
65581;SDS011;52231;40.090;18.348;2023-11-21T01:14:04;26.30;;;13.82;;
65581;SDS011;52231;40.090;18.348;2023-11-21T01:16:34;36.17;;;13.45;;
65581;SDS011;52231;40.090;18.348;2023-11-21T01:19:03;33.45;;;14.25;;
65581;SDS011;52231;40.090;18.348;2023-11-21T01:21:31;38.55;;;13.45;;
65581;SDS011;52231;40.090;18.348;2023-11-21T01:24:00;32.13;;;12.57;;
65581;SDS011;52231;40.090;18.348;2023-11-21T01:26:28;31.45;;;13.45;;
65581;SDS011;52231;40.090;18.348;2023-11-21T01:28:56;33.72;;;11.60;;
65581;SDS011;52231;40.090;18.348;2023-11-21T01:31:25;35.22;;;11.90;;
65581;SDS011;52231;40.090;18.348;2023-11-21T01:33:56;29.35;;;11.85;;
65581;SDS011;52231;40.090;18.348;2023-11-21T01:36:29;29.48;;;12.38;;
65581;SDS011;52231;40.090;18.348;2023-11-21T01:39:01;23.60;;;10.75;;
65581;SDS011;52231;40.090;18.348;2023-11-21T01:41:29;30.65;;;11.98;;
65581;SDS011;52231;40.090;18.348;2023-11-21T01:43:58;31.00;;;10.35;;
65581;SDS011;52231;40.090;18.348;2023-11-21T01:46:26;31.40;;;9.50;;
65581;SDS011;52231;40.090;18.348;2023-11-21T01:48:54;32.03;;;9.88;;
65581;SDS011;52231;40.090;18.348;2023-11-21T01:51:22;29.83;;;10.30;;
65581;SDS011;52231;40.090;18.348;2023-11-21T01:53:50;29.83;;;11.25;;
65581;SDS011;52231;40.090;18.348;2023-11-21T01:56:18;32.35;;;11.40;;
65581;SDS011;52231;40.090;18.348;2023-11-21T01:58:47;35.85;;;10.90;;
65581;SDS011;52231;40.090;18.348;2023-11-21T02:01:15;30.80;;;10.18;;
65581;SDS011;52231;40.090;18.348;2023-11-21T02:03:46;31.42;;;11.02;;
65581;SDS011;52231;40.090;18.348;2023-11-21T02:06:14;29.90;;;9.98;;
65581;SDS011;52231;40.090;18.348;2023-11-21T02:08:42;32.05;;;10.90;;
65581;SDS011;52231;40.090;18.348;2023-11-21T02:11:12;28.65;;;10.73;;
65581;SDS011;52231;40.090;18.348;2023-11-21T02:13:43;29.45;;;10.13;;
65581;SDS011;52231;40.090;18.348;2023-11-21T02:16:13;25.88;;;10.32;;
65581;SDS011;52231;40.090;18.348;2023-11-21T02:18:41;28.15;;;10.48;;
65581;SDS011;52231;40.090;18.348;2023-11-21T02:21:09;24.67;;;10.68;;
65581;SDS011;52231;40.090;18.348;2023-11-21T02:23:37;28.55;;;11.20;;
65581;SDS011;52231;40.090;18.348;2023-11-21T02:26:10;27.05;;;10.32;;
65581;SDS011;52231;40.090;18.348;2023-11-21T02:28:38;35.80;;;10.70;;
65581;SDS011;52231;40.090;18.348;2023-11-21T02:31:07;29.13;;;10.68;;
65581;SDS011;52231;40.090;18.348;2023-11-21T02:33:35;29.95;;;10.10;;
65581;SDS011;52231;40.090;18.348;2023-11-21T02:36:03;25.25;;;10.65;;
65581;SDS011;52231;40.090;18.348;2023-11-21T02:38:31;32.88;;;10.65;;
65581;SDS011;52231;40.090;18.348;2023-11-21T02:41:00;26.92;;;10.63;;
65581;SDS011;52231;40.090;18.348;2023-11-21T02:43:28;35.90;;;11.55;;
65581;SDS011;52231;40.090;18.348;2023-11-21T02:45:57;33.20;;;11.48;;
65581;SDS011;52231;40.090;18.348;2023-11-21T02:48:25;35.65;;;12.00;;
65581;SDS011;52231;40.090;18.348;2023-11-21T02:50:53;31.83;;;11.55;;
65581;SDS011;52231;40.090;18.348;2023-11-21T02:53:21;38.63;;;11.63;;
65581;SDS011;52231;40.090;18.348;2023-11-21T02:55:49;37.72;;;11.88;;
65581;SDS011;52231;40.090;18.348;2023-11-21T02:58:17;32.58;;;11.55;;
65581;SDS011;52231;40.090;18.348;2023-11-21T03:00:45;36.25;;;11.07;;
65581;SDS011;52231;40.090;18.348;2023-11-21T03:03:13;32.00;;;10.68;;
65581;SDS011;52231;40.090;18.348;2023-11-21T03:08:10;29.55;;;11.02;;
65581;SDS011;52231;40.090;18.348;2023-11-21T03:10:38;33.75;;;11.73;;
65581;SDS011;52231;40.090;18.348;2023-11-21T03:13:07;30.80;;;11.48;;
65581;SDS011;52231;40.090;18.348;2023-11-21T03:15:35;35.53;;;11.18;;
65581;SDS011;52231;40.090;18.348;2023-11-21T03:18:04;33.83;;;11.30;;
65581;SDS011;52231;40.090;18.348;2023-11-21T03:23:00;31.98;;;10.25;;
65581;SDS011;52231;40.090;18.348;2023-11-21T03:25:28;29.88;;;11.43;;
65581;SDS011;52231;40.090;18.348;2023-11-21T03:27:56;32.20;;;11.55;;
65581;SDS011;52231;40.090;18.348;2023-11-21T03:30:25;35.40;;;13.23;;
65581;SDS011;52231;40.090;18.348;2023-11-21T03:32:53;34.80;;;11.48;;
65581;SDS011;52231;40.090;18.348;2023-11-21T03:35:21;33.53;;;11.82;;
65581;SDS011;52231;40.090;18.348;2023-11-21T03:37:49;35.47;;;11.70;;
65581;SDS011;52231;40.090;18.348;2023-11-21T03:40:18;38.30;;;12.63;;
65581;SDS011;52231;40.090;18.348;2023-11-21T03:42:48;39.03;;;13.80;;
65581;SDS011;52231;40.090;18.348;2023-11-21T03:45:20;35.10;;;13.32;;
65581;SDS011;52231;40.090;18.348;2023-11-21T03:47:50;37.28;;;12.57;;
65581;SDS011;52231;40.090;18.348;2023-11-21T03:50:18;43.10;;;12.70;;
65581;SDS011;52231;40.090;18.348;2023-11-21T03:52:46;34.00;;;12.32;;
65581;SDS011;52231;40.090;18.348;2023-11-21T03:55:15;37.90;;;12.68;;
65581;SDS011;52231;40.090;18.348;2023-11-21T03:57:44;39.85;;;12.02;;
65581;SDS011;52231;40.090;18.348;2023-11-21T04:00:12;34.85;;;12.85;;
65581;SDS011;52231;40.090;18.348;2023-11-21T04:02:40;33.85;;;12.68;;
65581;SDS011;52231;40.090;18.348;2023-11-21T04:05:09;39.40;;;12.45;;
65581;SDS011;52231;40.090;18.348;2023-11-21T04:07:37;33.15;;;11.73;;
65581;SDS011;52231;40.090;18.348;2023-11-21T04:12:36;37.45;;;11.25;;
65581;SDS011;52231;40.090;18.348;2023-11-21T04:15:04;33.10;;;11.18;;
65581;SDS011;52231;40.090;18.348;2023-11-21T04:17:32;39.85;;;10.95;;
65581;SDS011;52231;40.090;18.348;2023-11-21T04:20:00;34.22;;;11.65;;
65581;SDS011;52231;40.090;18.348;2023-11-21T04:22:28;35.72;;;10.50;;
65581;SDS011;52231;40.090;18.348;2023-11-21T04:24:56;28.02;;;11.85;;
65581;SDS011;52231;40.090;18.348;2023-11-21T04:27:25;36.28;;;11.38;;
65581;SDS011;52231;40.090;18.348;2023-11-21T04:29:53;34.53;;;11.80;;
65581;SDS011;52231;40.090;18.348;2023-11-21T04:32:21;37.38;;;11.73;;
65581;SDS011;52231;40.090;18.348;2023-11-21T04:34:49;34.70;;;12.23;;
65581;SDS011;52231;40.090;18.348;2023-11-21T04:37:17;34.20;;;11.43;;
65581;SDS011;52231;40.090;18.348;2023-11-21T04:39:45;30.13;;;11.27;;
65581;SDS011;52231;40.090;18.348;2023-11-21T04:42:13;34.42;;;12.07;;
65581;SDS011;52231;40.090;18.348;2023-11-21T04:44:41;36.47;;;10.88;;
65581;SDS011;52231;40.090;18.348;2023-11-21T04:47:09;30.75;;;11.18;;
65581;SDS011;52231;40.090;18.348;2023-11-21T04:49:39;37.45;;;12.48;;
65581;SDS011;52231;40.090;18.348;2023-11-21T04:52:11;32.80;;;11.82;;
65581;SDS011;52231;40.090;18.348;2023-11-21T04:54:39;39.60;;;12.00;;
65581;SDS011;52231;40.090;18.348;2023-11-21T04:57:07;32.47;;;12.57;;
65581;SDS011;52231;40.090;18.348;2023-11-21T04:59:35;30.08;;;11.55;;
65581;SDS011;52231;40.090;18.348;2023-11-21T05:02:03;31.38;;;12.20;;
65581;SDS011;52231;40.090;18.348;2023-11-21T05:04:32;32.15;;;12.63;;
65581;SDS011;52231;40.090;18.348;2023-11-21T05:07:00;36.90;;;12.85;;
65581;SDS011;52231;40.090;18.348;2023-11-21T05:09:28;38.55;;;11.60;;
65581;SDS011;52231;40.090;18.348;2023-11-21T05:11:59;36.75;;;12.30;;
65581;SDS011;52231;40.090;18.348;2023-11-21T05:14:27;39.00;;;12.55;;
65581;SDS011;52231;40.090;18.348;2023-11-21T05:16:55;37.45;;;13.05;;
65581;SDS011;52231;40.090;18.348;2023-11-21T05:19:24;40.28;;;12.75;;
65581;SDS011;52231;40.090;18.348;2023-11-21T05:21:52;33.45;;;11.77;;
65581;SDS011;52231;40.090;18.348;2023-11-21T05:24:20;37.50;;;12.68;;
65581;SDS011;52231;40.090;18.348;2023-11-21T05:26:48;29.30;;;11.98;;
65581;SDS011;52231;40.090;18.348;2023-11-21T05:29:16;29.73;;;11.30;;
65581;SDS011;52231;40.090;18.348;2023-11-21T05:31:44;33.67;;;11.35;;
65581;SDS011;52231;40.090;18.348;2023-11-21T05:34:12;33.47;;;11.48;;
65581;SDS011;52231;40.090;18.348;2023-11-21T05:36:43;36.33;;;11.50;;
65581;SDS011;52231;40.090;18.348;2023-11-21T05:39:13;38.58;;;12.23;;
65581;SDS011;52231;40.090;18.348;2023-11-21T05:41:44;32.78;;;11.65;;
65581;SDS011;52231;40.090;18.348;2023-11-21T05:44:14;34.28;;;11.20;;
65581;SDS011;52231;40.090;18.348;2023-11-21T05:46:42;32.22;;;10.40;;
65581;SDS011;52231;40.090;18.348;2023-11-21T05:49:10;33.38;;;11.05;;
65581;SDS011;52231;40.090;18.348;2023-11-21T05:51:39;33.72;;;12.05;;
65581;SDS011;52231;40.090;18.348;2023-11-21T05:54:07;39.83;;;11.93;;
65581;SDS011;52231;40.090;18.348;2023-11-21T05:56:35;29.98;;;11.07;;
65581;SDS011;52231;40.090;18.348;2023-11-21T05:59:04;35.88;;;11.88;;
65581;SDS011;52231;40.090;18.348;2023-11-21T06:01:33;35.85;;;12.32;;
65581;SDS011;52231;40.090;18.348;2023-11-21T06:04:02;37.00;;;12.18;;
65581;SDS011;52231;40.090;18.348;2023-11-21T06:06:31;31.13;;;11.00;;
65581;SDS011;52231;40.090;18.348;2023-11-21T06:08:59;33.28;;;12.57;;
65581;SDS011;52231;40.090;18.348;2023-11-21T06:11:27;33.40;;;11.88;;
65581;SDS011;52231;40.090;18.348;2023-11-21T06:13:55;30.73;;;12.43;;
65581;SDS011;52231;40.090;18.348;2023-11-21T06:16:23;31.23;;;11.85;;
65581;SDS011;52231;40.090;18.348;2023-11-21T06:18:51;34.47;;;12.25;;
65581;SDS011;52231;40.090;18.348;2023-11-21T06:21:20;29.60;;;12.63;;
65581;SDS011;52231;40.090;18.348;2023-11-21T06:23:48;34.88;;;12.85;;
65581;SDS011;52231;40.090;18.348;2023-11-21T06:26:17;31.20;;;11.48;;
65581;SDS011;52231;40.090;18.348;2023-11-21T06:28:46;29.95;;;11.65;;
65581;SDS011;52231;40.090;18.348;2023-11-21T06:31:14;30.88;;;12.55;;
65581;SDS011;52231;40.090;18.348;2023-11-21T06:33:42;33.28;;;13.00;;
65581;SDS011;52231;40.090;18.348;2023-11-21T06:36:10;31.17;;;13.32;;
65581;SDS011;52231;40.090;18.348;2023-11-21T06:38:41;30.92;;;12.48;;
65581;SDS011;52231;40.090;18.348;2023-11-21T06:41:09;32.85;;;11.45;;
65581;SDS011;52231;40.090;18.348;2023-11-21T06:43:37;33.85;;;11.32;;
65581;SDS011;52231;40.090;18.348;2023-11-21T06:46:05;28.92;;;8.60;;
65581;SDS011;52231;40.090;18.348;2023-11-21T06:48:33;29.45;;;11.23;;
65581;SDS011;52231;40.090;18.348;2023-11-21T06:53:29;27.92;;;10.70;;
65581;SDS011;52231;40.090;18.348;2023-11-21T06:55:57;33.90;;;11.07;;
65581;SDS011;52231;40.090;18.348;2023-11-21T06:58:25;38.33;;;12.45;;
65581;SDS011;52231;40.090;18.348;2023-11-21T07:00:54;34.10;;;12.75;;
65581;SDS011;52231;40.090;18.348;2023-11-21T07:03:22;30.35;;;11.52;;
65581;SDS011;52231;40.090;18.348;2023-11-21T07:05:51;28.00;;;11.48;;
65581;SDS011;52231;40.090;18.348;2023-11-21T07:08:19;28.20;;;10.10;;
65581;SDS011;52231;40.090;18.348;2023-11-21T07:10:47;25.98;;;9.07;;
65581;SDS011;52231;40.090;18.348;2023-11-21T07:13:16;27.45;;;8.85;;
65581;SDS011;52231;40.090;18.348;2023-11-21T07:15:44;24.48;;;9.57;;
65581;SDS011;52231;40.090;18.348;2023-11-21T07:18:12;29.17;;;11.18;;
65581;SDS011;52231;40.090;18.348;2023-11-21T07:20:41;31.50;;;11.05;;
65581;SDS011;52231;40.090;18.348;2023-11-21T07:23:09;26.67;;;10.02;;
65581;SDS011;52231;40.090;18.348;2023-11-21T07:25:37;29.50;;;11.23;;
65581;SDS011;52231;40.090;18.348;2023-11-21T07:28:05;27.85;;;9.55;;
65581;SDS011;52231;40.090;18.348;2023-11-21T07:30:34;26.83;;;9.02;;
65581;SDS011;52231;40.090;18.348;2023-11-21T07:33:02;28.30;;;8.93;;
65581;SDS011;52231;40.090;18.348;2023-11-21T07:35:30;28.83;;;10.52;;
65581;SDS011;52231;40.090;18.348;2023-11-21T07:37:58;33.55;;;10.63;;
65581;SDS011;52231;40.090;18.348;2023-11-21T07:40:26;31.67;;;10.77;;
65581;SDS011;52231;40.090;18.348;2023-11-21T07:42:56;29.67;;;9.35;;
65581;SDS011;52231;40.090;18.348;2023-11-21T07:45:25;30.40;;;9.98;;
65581;SDS011;52231;40.090;18.348;2023-11-21T07:47:55;28.80;;;9.90;;
65581;SDS011;52231;40.090;18.348;2023-11-21T07:50:23;28.75;;;9.63;;
65581;SDS011;52231;40.090;18.348;2023-11-21T07:52:51;24.00;;;8.93;;
65581;SDS011;52231;40.090;18.348;2023-11-21T07:55:21;23.23;;;8.93;;
65581;SDS011;52231;40.090;18.348;2023-11-21T07:57:50;26.00;;;9.13;;
65581;SDS011;52231;40.090;18.348;2023-11-21T08:00:18;31.02;;;9.32;;
65581;SDS011;52231;40.090;18.348;2023-11-21T08:02:48;28.55;;;9.13;;
65581;SDS011;52231;40.090;18.348;2023-11-21T08:05:16;33.45;;;11.32;;
65581;SDS011;52231;40.090;18.348;2023-11-21T08:07:44;33.45;;;14.00;;
65581;SDS011;52231;40.090;18.348;2023-11-21T08:10:12;27.77;;;12.93;;
65581;SDS011;52231;40.090;18.348;2023-11-21T08:12:41;25.25;;;11.32;;
65581;SDS011;52231;40.090;18.348;2023-11-21T08:15:10;27.17;;;9.68;;
65581;SDS011;52231;40.090;18.348;2023-11-21T08:17:38;20.55;;;8.32;;
65581;SDS011;52231;40.090;18.348;2023-11-21T08:20:06;19.20;;;6.95;;
65581;SDS011;52231;40.090;18.348;2023-11-21T08:22:36;26.80;;;7.05;;
65581;SDS011;52231;40.090;18.348;2023-11-21T08:25:04;13.75;;;5.90;;
65581;SDS011;52231;40.090;18.348;2023-11-21T08:27:33;20.40;;;6.18;;
65581;SDS011;52231;40.090;18.348;2023-11-21T08:30:05;23.83;;;6.80;;
65581;SDS011;52231;40.090;18.348;2023-11-21T08:32:34;18.77;;;6.00;;
65581;SDS011;52231;40.090;18.348;2023-11-21T08:35:02;20.60;;;6.65;;
65581;SDS011;52231;40.090;18.348;2023-11-21T08:37:31;24.20;;;6.93;;
65581;SDS011;52231;40.090;18.348;2023-11-21T08:40:00;19.23;;;5.18;;
65581;SDS011;52231;40.090;18.348;2023-11-21T08:42:29;17.60;;;5.30;;
65581;SDS011;52231;40.090;18.348;2023-11-21T08:44:57;16.58;;;6.47;;
65581;SDS011;52231;40.090;18.348;2023-11-21T08:47:25;19.33;;;5.15;;
65581;SDS011;52231;40.090;18.348;2023-11-21T08:49:53;18.77;;;5.30;;
65581;SDS011;52231;40.090;18.348;2023-11-21T08:52:21;17.00;;;4.22;;
65581;SDS011;52231;40.090;18.348;2023-11-21T08:57:23;15.73;;;4.07;;
65581;SDS011;52231;40.090;18.348;2023-11-21T08:59:51;19.15;;;4.00;;
65581;SDS011;52231;40.090;18.348;2023-11-21T09:02:22;11.15;;;3.10;;
65581;SDS011;52231;40.090;18.348;2023-11-21T09:04:50;17.50;;;3.55;;
65581;SDS011;52231;40.090;18.348;2023-11-21T09:07:19;80.20;;;9.55;;
65581;SDS011;52231;40.090;18.348;2023-11-21T09:09:47;18.75;;;3.97;;
65581;SDS011;52231;40.090;18.348;2023-11-21T09:12:16;17.80;;;3.85;;
65581;SDS011;52231;40.090;18.348;2023-11-21T09:14:46;16.40;;;3.70;;
65581;SDS011;52231;40.090;18.348;2023-11-21T09:17:15;13.93;;;3.17;;
65581;SDS011;52231;40.090;18.348;2023-11-21T09:22:14;16.02;;;3.80;;
65581;SDS011;52231;40.090;18.348;2023-11-21T09:24:42;15.40;;;3.25;;
65581;SDS011;52231;40.090;18.348;2023-11-21T09:27:10;9.52;;;2.72;;
65581;SDS011;52231;40.090;18.348;2023-11-21T09:29:38;10.45;;;2.72;;
65581;SDS011;52231;40.090;18.348;2023-11-21T09:32:06;11.90;;;2.92;;
65581;SDS011;52231;40.090;18.348;2023-11-21T09:34:35;15.25;;;3.10;;
65581;SDS011;52231;40.090;18.348;2023-11-21T09:37:06;11.63;;;2.92;;
65581;SDS011;52231;40.090;18.348;2023-11-21T09:39:34;11.35;;;2.83;;
65581;SDS011;52231;40.090;18.348;2023-11-21T09:42:10;15.63;;;2.80;;
65581;SDS011;52231;40.090;18.348;2023-11-21T09:47:35;9.40;;;2.25;;
65581;SDS011;52231;40.090;18.348;2023-11-21T09:50:06;13.52;;;2.90;;
65581;SDS011;52231;40.090;18.348;2023-11-21T09:53:21;12.20;;;3.03;;
65581;SDS011;52231;40.090;18.348;2023-11-21T09:55:44;15.02;;;2.95;;
65581;SDS011;52231;40.090;18.348;2023-11-21T09:58:14;12.32;;;3.08;;
65581;SDS011;52231;40.090;18.348;2023-11-21T10:00:49;13.05;;;2.33;;
65581;SDS011;52231;40.090;18.348;2023-11-21T10:03:20;13.23;;;2.85;;
65581;SDS011;52231;40.090;18.348;2023-11-21T10:05:50;15.95;;;3.25;;
65581;SDS011;52231;40.090;18.348;2023-11-21T10:08:20;12.65;;;2.80;;
65581;SDS011;52231;40.090;18.348;2023-11-21T10:10:51;9.13;;;2.35;;
65581;SDS011;52231;40.090;18.348;2023-11-21T10:13:21;12.05;;;3.08;;
65581;SDS011;52231;40.090;18.348;2023-11-21T10:15:49;17.70;;;3.40;;
65581;SDS011;52231;40.090;18.348;2023-11-21T10:18:19;15.40;;;2.95;;
65581;SDS011;52231;40.090;18.348;2023-11-21T10:20:49;18.20;;;3.05;;
65581;SDS011;52231;40.090;18.348;2023-11-21T10:23:21;20.27;;;3.85;;
65581;SDS011;52231;40.090;18.348;2023-11-21T10:25:50;20.27;;;3.92;;
65581;SDS011;52231;40.090;18.348;2023-11-21T10:28:20;14.63;;;3.80;;
65581;SDS011;52231;40.090;18.348;2023-11-21T10:30:48;23.13;;;7.50;;
65581;SDS011;52231;40.090;18.348;2023-11-21T10:33:16;26.48;;;6.45;;
65581;SDS011;52231;40.090;18.348;2023-11-21T10:35:45;17.98;;;5.25;;
65581;SDS011;52231;40.090;18.348;2023-11-21T10:38:22;25.08;;;5.68;;
65581;SDS011;52231;40.090;18.348;2023-11-21T10:40:52;20.58;;;5.10;;
65581;SDS011;52231;40.090;18.348;2023-11-21T10:43:25;17.25;;;3.78;;
65581;SDS011;52231;40.090;18.348;2023-11-21T10:45:54;30.13;;;6.65;;
65581;SDS011;52231;40.090;18.348;2023-11-21T10:48:26;22.90;;;5.07;;
65581;SDS011;52231;40.090;18.348;2023-11-21T10:50:55;18.95;;;4.40;;
65581;SDS011;52231;40.090;18.348;2023-11-21T10:53:24;15.73;;;3.28;;
65581;SDS011;52231;40.090;18.348;2023-11-21T10:56:05;15.18;;;3.08;;
65581;SDS011;52231;40.090;18.348;2023-11-21T10:58:37;14.00;;;2.92;;
65581;SDS011;52231;40.090;18.348;2023-11-21T11:01:07;16.17;;;3.30;;
65581;SDS011;52231;40.090;18.348;2023-11-21T11:03:38;17.38;;;3.45;;
65581;SDS011;52231;40.090;18.348;2023-11-21T11:06:07;15.23;;;3.10;;
65581;SDS011;52231;40.090;18.348;2023-11-21T11:08:57;17.77;;;2.80;;
65581;SDS011;52231;40.090;18.348;2023-11-21T11:11:27;14.13;;;2.90;;
65581;SDS011;52231;40.090;18.348;2023-11-21T11:13:57;16.15;;;3.75;;
65581;SDS011;52231;40.090;18.348;2023-11-21T11:16:27;20.85;;;4.53;;
65581;SDS011;52231;40.090;18.348;2023-11-21T11:18:56;22.63;;;5.45;;
65581;SDS011;52231;40.090;18.348;2023-11-21T11:21:31;16.70;;;3.10;;
65581;SDS011;52231;40.090;18.348;2023-11-21T11:27:02;9.90;;;2.85;;
65581;SDS011;52231;40.090;18.348;2023-11-21T11:30:08;18.15;;;3.35;;
65581;SDS011;52231;40.090;18.348;2023-11-21T11:35:56;20.30;;;3.70;;
65581;SDS011;52231;40.090;18.348;2023-11-21T11:38:50;20.52;;;3.53;;
65581;SDS011;52231;40.090;18.348;2023-11-21T11:41:26;18.48;;;3.40;;
65581;SDS011;52231;40.090;18.348;2023-11-21T11:44:01;13.63;;;3.15;;
65581;SDS011;52231;40.090;18.348;2023-11-21T11:46:44;15.88;;;3.65;;
65581;SDS011;52231;40.090;18.348;2023-11-21T11:49:23;15.63;;;3.45;;
65581;SDS011;52231;40.090;18.348;2023-11-21T11:54:59;12.65;;;3.50;;
65581;SDS011;52231;40.090;18.348;2023-11-21T11:57:31;18.85;;;4.15;;
65581;SDS011;52231;40.090;18.348;2023-11-21T12:00:21;22.67;;;4.03;;
65581;SDS011;52231;40.090;18.348;2023-11-21T12:02:57;13.23;;;3.63;;
65581;SDS011;52231;40.090;18.348;2023-11-21T12:05:29;24.90;;;7.50;;
65581;SDS011;52231;40.090;18.348;2023-11-21T12:08:06;58.00;;;20.13;;
65581;SDS011;52231;40.090;18.348;2023-11-21T12:10:36;55.10;;;18.42;;
65581;SDS011;52231;40.090;18.348;2023-11-21T12:13:07;39.47;;;11.32;;
65581;SDS011;52231;40.090;18.348;2023-11-21T12:15:37;54.50;;;18.00;;
65581;SDS011;52231;40.090;18.348;2023-11-21T12:18:07;47.83;;;14.32;;
65581;SDS011;52231;40.090;18.348;2023-11-21T12:20:36;51.67;;;13.32;;
65581;SDS011;52231;40.090;18.348;2023-11-21T12:23:06;49.80;;;17.13;;
65581;SDS011;52231;40.090;18.348;2023-11-21T12:25:36;43.88;;;14.50;;
65581;SDS011;52231;40.090;18.348;2023-11-21T12:28:09;46.95;;;14.63;;
65581;SDS011;52231;40.090;18.348;2023-11-21T12:30:38;29.75;;;6.88;;
65581;SDS011;52231;40.090;18.348;2023-11-21T12:33:07;20.75;;;5.10;;
65581;SDS011;52231;40.090;18.348;2023-11-21T12:35:37;20.60;;;3.60;;
65581;SDS011;52231;40.090;18.348;2023-11-21T12:38:05;36.30;;;9.90;;
65581;SDS011;52231;40.090;18.348;2023-11-21T12:40:36;39.25;;;9.80;;
65581;SDS011;52231;40.090;18.348;2023-11-21T12:43:06;24.20;;;5.50;;
65581;SDS011;52231;40.090;18.348;2023-11-21T12:45:35;41.75;;;11.23;;
65581;SDS011;52231;40.090;18.348;2023-11-21T12:48:05;51.88;;;14.98;;
65581;SDS011;52231;40.090;18.348;2023-11-21T12:50:38;42.00;;;10.52;;
65581;SDS011;52231;40.090;18.348;2023-11-21T12:53:07;27.00;;;5.13;;
65581;SDS011;52231;40.090;18.348;2023-11-21T12:55:37;37.03;;;10.73;;
65581;SDS011;52231;40.090;18.348;2023-11-21T12:58:06;40.42;;;10.63;;
65581;SDS011;52231;40.090;18.348;2023-11-21T13:00:38;30.85;;;7.28;;
65581;SDS011;52231;40.090;18.348;2023-11-21T13:03:12;30.95;;;6.43;;
65581;SDS011;52231;40.090;18.348;2023-11-21T13:05:47;36.67;;;10.02;;
65581;SDS011;52231;40.090;18.348;2023-11-21T13:08:19;32.58;;;7.57;;
65581;SDS011;52231;40.090;18.348;2023-11-21T13:10:51;36.35;;;7.95;;
65581;SDS011;52231;40.090;18.348;2023-11-21T13:13:30;27.98;;;6.07;;
65581;SDS011;52231;40.090;18.348;2023-11-21T13:16:00;44.65;;;10.07;;
65581;SDS011;52231;40.090;18.348;2023-11-21T13:18:32;38.97;;;8.95;;
65581;SDS011;52231;40.090;18.348;2023-11-21T13:21:04;33.28;;;6.25;;
65581;SDS011;52231;40.090;18.348;2023-11-21T13:23:44;40.97;;;6.97;;
65581;SDS011;52231;40.090;18.348;2023-11-21T13:26:14;27.30;;;5.88;;
65581;SDS011;52231;40.090;18.348;2023-11-21T13:28:43;21.00;;;4.05;;
65581;SDS011;52231;40.090;18.348;2023-11-21T13:31:14;22.20;;;4.88;;
65581;SDS011;52231;40.090;18.348;2023-11-21T13:33:50;25.33;;;5.50;;
65581;SDS011;52231;40.090;18.348;2023-11-21T13:36:23;30.23;;;6.82;;
65581;SDS011;52231;40.090;18.348;2023-11-21T13:38:52;44.08;;;9.88;;
65581;SDS011;52231;40.090;18.348;2023-11-21T13:41:21;30.83;;;6.05;;
65581;SDS011;52231;40.090;18.348;2023-11-21T13:43:58;25.13;;;6.22;;
65581;SDS011;52231;40.090;18.348;2023-11-21T13:46:47;40.92;;;9.30;;
65581;SDS011;52231;40.090;18.348;2023-11-21T13:49:15;41.85;;;9.45;;
65581;SDS011;52231;40.090;18.348;2023-11-21T13:54:13;35.50;;;7.53;;
65581;SDS011;52231;40.090;18.348;2023-11-21T13:59:12;16.67;;;4.10;;
65581;SDS011;52231;40.090;18.348;2023-11-21T14:01:48;16.38;;;3.60;;
65581;SDS011;52231;40.090;18.348;2023-11-21T14:04:21;17.00;;;4.55;;
65581;SDS011;52231;40.090;18.348;2023-11-21T14:06:59;22.35;;;3.83;;
65581;SDS011;52231;40.090;18.348;2023-11-21T14:09:38;18.30;;;3.47;;
65581;SDS011;52231;40.090;18.348;2023-11-21T14:12:11;13.63;;;3.00;;
65581;SDS011;52231;40.090;18.348;2023-11-21T14:14:40;11.98;;;3.50;;
65581;SDS011;52231;40.090;18.348;2023-11-21T14:17:09;11.43;;;3.30;;
65581;SDS011;52231;40.090;18.348;2023-11-21T14:19:38;13.27;;;3.75;;
65581;SDS011;52231;40.090;18.348;2023-11-21T14:22:10;14.70;;;4.82;;
65581;SDS011;52231;40.090;18.348;2023-11-21T14:27:14;15.13;;;3.45;;
65581;SDS011;52231;40.090;18.348;2023-11-21T14:32:12;15.27;;;3.50;;
65581;SDS011;52231;40.090;18.348;2023-11-21T14:34:42;13.20;;;3.42;;
65581;SDS011;52231;40.090;18.348;2023-11-21T14:37:14;12.88;;;3.80;;
65581;SDS011;52231;40.090;18.348;2023-11-21T14:39:43;11.95;;;2.95;;
65581;SDS011;52231;40.090;18.348;2023-11-21T14:42:17;14.50;;;4.03;;
65581;SDS011;52231;40.090;18.348;2023-11-21T14:44:55;16.35;;;3.80;;
65581;SDS011;52231;40.090;18.348;2023-11-21T14:47:30;13.90;;;3.95;;
65581;SDS011;52231;40.090;18.348;2023-11-21T14:50:01;12.13;;;4.68;;
65581;SDS011;52231;40.090;18.348;2023-11-21T14:52:49;13.07;;;3.72;;
65581;SDS011;52231;40.090;18.348;2023-11-21T14:55:26;12.52;;;3.60;;
65581;SDS011;52231;40.090;18.348;2023-11-21T14:58:08;12.25;;;3.80;;
65581;SDS011;52231;40.090;18.348;2023-11-21T15:00:40;15.10;;;4.07;;
65581;SDS011;52231;40.090;18.348;2023-11-21T15:03:12;14.93;;;4.22;;
65581;SDS011;52231;40.090;18.348;2023-11-21T15:06:10;13.25;;;3.95;;
65581;SDS011;52231;40.090;18.348;2023-11-21T15:08:55;14.15;;;3.53;;
65581;SDS011;52231;40.090;18.348;2023-11-21T15:11:47;16.42;;;4.50;;
65581;SDS011;52231;40.090;18.348;2023-11-21T15:14:15;15.75;;;4.10;;